Time;durP1;ratioP1;P1;durP2;ratioP2;P2;SDS_P1;SDS_P2;PMS_P1;PMS_P2;Temp;Humidity;BMP_temperature;BMP_pressure;BME280_temperature;BME280_humidity;BME280_pressure;Samples;Min_cycle;Max_cycle;Signal;HPM_P1;HPM_P2
2023/12/15 00:00:37;;;;;;;3.15;1.92;;;;;;;0.73;100.00;99046.91;5114506;28;20376;-63
2023/12/15 00:03:04;;;;;;;3.00;2.33;;;;;;;0.58;100.00;99068.81;5116604;28;20152;-62
2023/12/15 00:05:30;;;;;;;3.25;2.63;;;;;;;0.81;100.00;99067.78;5114328;28;20066;-64
2023/12/15 00:07:57;;;;;;;5.10;2.80;;;;;;;0.71;100.00;99035.63;5115895;28;20051;-61
2023/12/15 00:10:23;;;;;;;4.13;2.50;;;;;;;0.87;100.00;99031.50;5115696;28;20051;-60
2023/12/15 00:12:49;;;;;;;3.05;2.75;;;;;;;0.90;100.00;99041.69;5114445;28;20078;-63
2023/12/15 00:15:16;;;;;;;4.07;2.70;;;;;;;0.82;100.00;99053.19;5116300;28;20047;-60
2023/12/15 00:17:43;;;;;;;4.47;2.60;;;;;;;0.84;100.00;99072.59;5114377;28;20094;-63
2023/12/15 00:20:10;;;;;;;2.97;2.67;;;;;;;0.96;100.00;99104.44;5116655;28;20051;-63
2023/12/15 00:22:36;;;;;;;4.53;3.13;;;;;;;0.83;100.00;99114.16;5114302;28;20071;-61
2023/12/15 00:25:02;;;;;;;3.85;2.75;;;;;;;0.96;100.00;99139.53;5116443;28;20398;-64
2023/12/15 00:27:29;;;;;;;5.88;3.13;;;;;;;0.92;100.00;99141.25;5114177;28;20083;-63
2023/12/15 00:29:55;;;;;;;5.97;3.30;;;;;;;0.84;100.00;99153.56;5116618;28;20055;-61
2023/12/15 00:32:23;;;;;;;4.47;3.00;;;;;;;0.85;100.00;99182.13;5113955;28;20109;-62
2023/12/15 00:34:50;;;;;;;4.35;3.33;;;;;;;0.88;100.00;99192.31;5116557;28;20134;-63
2023/12/15 00:37:16;;;;;;;5.53;3.75;;;;;;;0.81;100.00;99177.66;5116309;28;20333;-61
2023/12/15 00:39:42;;;;;;;2.95;2.65;;;;;;;1.06;100.00;99184.41;5113888;28;20048;-64
2023/12/15 00:42:08;;;;;;;4.72;3.00;;;;;;;0.77;100.00;99179.31;5116292;28;20063;-62
2023/12/15 00:44:35;;;;;;;3.80;2.95;;;;;;;0.83;100.00;99186.22;5115266;28;20070;-61
2023/12/15 00:47:01;;;;;;;5.03;3.30;;;;;;;0.88;100.00;99200.44;5119630;28;20086;-63
2023/12/15 00:49:28;;;;;;;5.43;3.65;;;;;;;0.89;100.00;99191.22;5117375;28;20052;-62
2023/12/15 00:51:55;;;;;;;3.55;2.70;;;;;;;0.92;100.00;99173.63;5119597;28;20090;-63
2023/12/15 00:54:21;;;;;;;3.22;2.70;;;;;;;0.91;100.00;99166.66;5117314;28;20098;-64
2023/12/15 00:56:48;;;;;;;3.50;3.00;;;;;;;0.93;100.00;99178.75;5119817;28;20087;-62
2023/12/15 00:59:15;;;;;;;4.10;3.13;;;;;;;0.78;100.00;99165.53;5117113;28;20051;-60
2023/12/15 01:01:41;;;;;;;4.82;3.17;;;;;;;0.83;100.00;99178.91;5119738;28;20083;-63
2023/12/15 01:04:07;;;;;;;3.95;2.63;;;;;;;0.72;100.00;99191.03;5117042;28;20471;-61
2023/12/15 01:06:34;;;;;;;3.72;2.55;;;;;;;0.73;100.00;99216.09;5117285;28;20052;-62
2023/12/15 01:09:01;;;;;;;5.90;3.42;;;;;;;0.74;100.00;99242.81;5102521;28;20078;-62
2023/12/15 01:11:27;;;;;;;3.95;2.75;;;;;;;0.82;100.00;99260.19;5117025;28;20413;-61
2023/12/15 01:13:53;;;;;;;5.00;3.65;;;;;;;0.82;100.00;99276.38;5119053;28;20067;-64
2023/12/15 01:16:20;;;;;;;5.80;3.47;;;;;;;0.74;100.00;99282.47;5116910;28;20120;-61
2023/12/15 01:18:46;;;;;;;4.00;3.47;;;;;;;0.96;100.00;99284.50;5119093;28;20048;-63
2023/12/15 01:21:12;;;;;;;5.15;3.20;;;;;;;1.00;100.00;99285.50;5116782;28;20083;-61
2023/12/15 01:23:39;;;;;;;3.85;3.22;;;;;;;0.76;100.00;99281.06;5119391;28;20138;-62
2023/12/15 01:26:06;;;;;;;3.75;2.67;;;;;;;0.93;100.00;99294.81;5116747;28;20490;-62
2023/12/15 01:28:32;;;;;;;3.42;3.05;;;;;;;0.51;100.00;99276.13;5119248;28;20424;-60
2023/12/15 01:31:01;;;;;;;3.80;3.40;;;;;;;0.56;100.00;99287.63;5116629;28;20509;-63
2023/12/15 01:33:27;;;;;;;4.80;3.53;;;;;;;0.64;100.00;99284.25;5118267;28;20139;-62
2023/12/15 01:35:54;;;;;;;5.15;3.83;;;;;;;0.39;100.00;99285.47;5117651;28;20094;-61
2023/12/15 01:38:20;;;;;;;4.75;3.88;;;;;;;0.50;100.00;99269.13;5116542;28;20096;-63
2023/12/15 01:40:48;;;;;;;7.00;3.40;;;;;;;0.60;100.00;99250.88;5118993;28;20193;-61
2023/12/15 01:43:14;;;;;;;6.75;4.40;;;;;;;0.56;100.00;99230.97;5116376;28;20059;-63
2023/12/15 01:45:40;;;;;;;5.00;4.00;;;;;;;0.58;100.00;99201.81;5118836;28;20091;-61
2023/12/15 01:48:07;;;;;;;4.03;2.67;;;;;;;0.49;100.00;99205.47;5116362;28;20097;-63
2023/12/15 01:50:34;;;;;;;4.10;3.15;;;;;;;0.38;100.00;99205.66;5118944;28;20068;-63
2023/12/15 01:53:00;;;;;;;8.25;3.22;;;;;;;0.36;100.00;99225.94;5116254;28;20094;-61
2023/12/15 01:55:26;;;;;;;6.55;4.78;;;;;;;0.23;100.00;99187.03;5118406;28;20090;-64
2023/12/15 01:57:53;;;;;;;6.78;4.80;;;;;;;0.18;100.00;99160.97;5116162;28;20098;-60
2023/12/15 02:00:20;;;;;;;5.75;3.55;;;;;;;0.18;100.00;99096.28;5118877;28;20101;-64
2023/12/15 02:02:46;;;;;;;7.95;4.95;;;;;;;-0.05;100.00;98998.31;5116311;28;20329;-63
2023/12/15 02:05:12;;;;;;;4.88;3.65;;;;;;;0.04;100.00;98949.13;5116379;28;20118;-60
2023/12/15 02:07:39;;;;;;;6.57;4.13;;;;;;;0.25;100.00;98874.00;5118338;28;20055;-63
2023/12/15 02:10:06;;;;;;;7.00;4.15;;;;;;;-0.03;100.00;98810.19;5116292;28;20055;-62
2023/12/15 02:12:33;;;;;;;7.38;4.30;;;;;;;-0.27;100.00;98759.25;5118234;28;20138;-63
2023/12/15 02:15:00;;;;;;;4.47;3.33;;;;;;;-0.11;100.00;98708.50;5115895;28;20097;-61
2023/12/15 02:17:27;;;;;;;4.43;3.08;;;;;;;-0.24;100.00;98633.91;5118542;28;20083;-63
2023/12/15 02:19:53;;;;;;;7.70;3.85;;;;;;;-0.19;100.00;98623.03;5115882;28;20482;-60
2023/12/15 02:22:25;;;;;;;6.43;3.58;;;;;;;-0.07;100.00;98576.63;5118390;28;20093;-63
2023/12/15 02:24:52;;;;;;;4.65;3.30;;;;;;;0.18;100.00;98543.63;5115834;28;20345;-62
2023/12/15 02:27:18;;;;;;;6.07;3.13;;;;;;;-0.11;100.00;98498.31;5118367;28;20051;-62
2023/12/15 02:29:44;;;;;;;4.80;2.92;;;;;;;-0.27;100.00;98500.66;5115691;28;20113;-61
2023/12/15 02:32:11;;;;;;;5.30;4.05;;;;;;;-0.29;100.00;98518.22;5115872;28;20098;-63
2023/12/15 02:34:37;;;;;;;6.03;4.53;;;;;;;-0.56;100.00;98535.34;5118085;28;20481;-61
2023/12/15 02:37:03;;;;;;;4.25;2.65;;;;;;;-0.47;100.00;98587.31;5115615;28;20134;-63
2023/12/15 02:39:31;;;;;;;5.70;3.53;;;;;;;-0.49;100.00;98656.84;5117899;28;20094;-62
2023/12/15 02:41:58;;;;;;;5.30;3.60;;;;;;;-0.44;100.00;98677.47;5115630;28;20063;-62
2023/12/15 02:44:24;;;;;;;6.05;3.85;;;;;;;-0.57;100.00;98714.09;5117977;28;20302;-64
2023/12/15 02:46:50;;;;;;;6.43;3.53;;;;;;;-0.54;100.00;98719.69;5115640;28;20447;-61
2023/12/15 02:49:18;;;;;;;4.10;2.50;;;;;;;-0.50;100.00;98687.56;5117918;28;20056;-62
2023/12/15 02:51:44;;;;;;;4.85;3.33;;;;;;;-0.72;100.00;98643.34;5115424;28;20060;-61
2023/12/15 02:54:11;;;;;;;4.03;3.00;;;;;;;-0.63;100.00;98666.84;5117904;28;20099;-62
2023/12/15 02:56:38;;;;;;;4.60;2.60;;;;;;;-0.70;100.00;98672.66;5115370;28;20382;-63
2023/12/15 02:59:04;;;;;;;3.95;3.28;;;;;;;-0.74;100.00;98644.75;5115718;28;20054;-62
2023/12/15 03:01:30;;;;;;;4.60;3.05;;;;;;;-0.83;100.00;98587.38;5117082;28;20095;-62
2023/12/15 03:03:57;;;;;;;4.30;2.70;;;;;;;-1.06;100.00;98509.31;5115607;28;20145;-60
2023/12/15 03:06:23;;;;;;;4.25;3.20;;;;;;;-0.99;100.00;98487.38;5117499;28;20060;-60
2023/12/15 03:08:49;;;;;;;6.10;3.10;;;;;;;-1.06;100.00;98470.88;5114014;28;20201;-63
2023/12/15 03:11:16;;;;;;;5.15;3.00;;;;;;;-0.75;100.00;98474.38;5117443;28;20105;-61
2023/12/15 03:13:43;;;;;;;4.95;3.33;;;;;;;-0.59;100.00;98458.66;5114991;28;20138;-62
2023/12/15 03:16:10;;;;;;;7.55;3.25;;;;;;;-0.55;100.00;98416.53;5117611;28;20318;-61
2023/12/15 03:18:37;;;;;;;5.10;3.38;;;;;;;-0.62;100.00;98369.66;5114948;28;20094;-63
2023/12/15 03:21:04;;;;;;;5.07;3.20;;;;;;;-0.69;100.00;98358.53;5117571;28;20098;-62
2023/12/15 03:23:31;;;;;;;5.55;3.40;;;;;;;-0.70;100.00;98368.47;5114973;28;20070;-63
2023/12/15 03:25:58;;;;;;;3.38;2.55;;;;;;;-0.90;100.00;98359.06;5116923;28;20137;-60
2023/12/15 03:28:24;;;;;;;4.78;2.63;;;;;;;-0.99;100.00;98352.84;5115688;28;20143;-61
2023/12/15 03:30:51;;;;;;;5.05;3.20;;;;;;;-1.05;100.00;98360.25;5115105;28;20204;-62
2023/12/15 03:33:17;;;;;;;4.93;3.47;;;;;;;-0.82;100.00;98373.66;5116877;28;20465;-63
2023/12/15 03:35:44;;;;;;;4.60;2.90;;;;;;;-0.91;100.00;98357.47;5114745;28;20087;-61
2023/12/15 03:38:12;;;;;;;4.00;2.95;;;;;;;-1.10;100.00;98352.31;5117032;28;20052;-62
2023/12/15 03:40:38;;;;;;;6.15;2.95;;;;;;;-1.07;100.00;98367.81;5114677;28;20105;-62
2023/12/15 03:43:05;;;;;;;4.03;1.80;;;;;;;-1.20;100.00;98377.56;5117092;28;20087;-63
2023/12/15 03:45:31;;;;;;;3.65;2.78;;;;;;;-1.24;100.00;98408.06;5114636;28;20091;-62
2023/12/15 03:47:58;;;;;;;5.30;3.03;;;;;;;-1.49;100.00;98423.69;5117118;28;20094;-64
2023/12/15 03:50:24;;;;;;;4.10;3.03;;;;;;;-1.16;100.00;98439.63;5114556;28;20093;-61
2023/12/15 03:52:51;;;;;;;4.38;2.97;;;;;;;-1.30;100.00;98393.13;5116447;28;20414;-63
2023/12/15 03:55:17;;;;;;;3.28;2.38;;;;;;;-1.32;100.00;98396.16;5114444;28;20425;-61
2023/12/15 03:57:43;;;;;;;3.88;3.00;;;;;;;-1.37;100.00;98380.13;5114391;28;20055;-62
2023/12/15 04:00:11;;;;;;;3.20;2.22;;;;;;;-1.61;100.00;98364.28;5116607;28;20051;-64
2023/12/15 04:02:37;;;;;;;2.78;2.55;;;;;;;-1.73;100.00;98386.34;5114367;28;20437;-64
2023/12/15 04:05:05;;;;;;;3.72;2.38;;;;;;;-1.65;100.00;98427.81;5116595;28;20444;-61
2023/12/15 04:07:31;;;;;;;4.32;2.80;;;;;;;-1.63;100.00;98435.56;5114527;28;20371;-64
2023/12/15 04:09:57;;;;;;;2.97;2.45;;;;;;;-1.69;100.00;98472.53;5116834;28;20051;-61
2023/12/15 04:12:24;;;;;;;3.53;2.90;;;;;;;-1.45;100.00;98499.94;5114215;28;20138;-64
2023/12/15 04:14:51;;;;;;;3.75;2.85;;;;;;;-1.50;100.00;98510.81;5116599;28;20060;-60
2023/12/15 04:17:17;;;;;;;3.55;2.90;;;;;;;-1.50;100.00;98534.19;5114187;28;20055;-62
2023/12/15 04:19:44;;;;;;;4.13;2.78;;;;;;;-1.32;100.00;98549.41;5118435;28;20060;-61
2023/12/15 04:22:11;;;;;;;7.43;3.67;;;;;;;-1.22;100.00;98575.31;5117674;28;20163;-64
2023/12/15 04:24:37;;;;;;;4.55;3.03;;;;;;;-1.37;100.00;98573.72;5118311;28;20455;-60
2023/12/15 04:27:04;;;;;;;5.25;2.92;;;;;;;-1.39;100.00;98559.00;5119721;28;20099;-64
2023/12/15 04:29:30;;;;;;;3.53;2.40;;;;;;;-1.09;100.00;98546.78;5117680;28;20099;-64
2023/12/15 04:31:56;;;;;;;2.25;1.80;;;;;;;-1.31;100.00;98509.88;5120479;28;20085;-62
2023/12/15 04:34:22;;;;;;;2.72;2.30;;;;;;;-1.16;100.00;98489.94;5117720;28;20227;-60
2023/12/15 04:36:48;;;;;;;2.15;1.90;;;;;;;-1.11;100.00;98461.00;5119933;28;20441;-61
2023/12/15 04:39:15;;;;;;;2.88;2.58;;;;;;;-1.38;100.00;98453.81;5117447;28;20052;-64
2023/12/15 04:41:41;;;;;;;3.47;2.25;;;;;;;-1.07;100.00;98480.81;5120004;28;20055;-64
2023/12/15 04:44:07;;;;;;;3.40;2.28;;;;;;;-1.05;100.00;98475.91;5117364;28;20059;-62
2023/12/15 04:46:33;;;;;;;3.17;2.58;;;;;;;-0.96;100.00;98484.06;5120050;28;20051;-60
2023/12/15 04:48:59;;;;;;;2.20;2.00;;;;;;;-0.98;100.00;98472.81;5117205;28;20135;-62
2023/12/15 04:51:26;;;;;;;5.03;2.97;;;;;;;-1.21;100.00;98526.56;5119660;28;20165;-64
2023/12/15 04:53:52;;;;;;;4.18;2.88;;;;;;;-1.16;100.00;98560.66;5117803;28;20109;-62
2023/12/15 04:56:19;;;;;;;2.40;2.20;;;;;;;-1.20;100.00;98581.97;5117203;28;20052;-63
2023/12/15 04:58:45;;;;;;;2.97;2.20;;;;;;;-1.40;100.00;98619.22;5119422;28;20367;-63
2023/12/15 05:01:12;;;;;;;4.60;2.80;;;;;;;-1.28;100.00;98689.44;5116774;28;20124;-62
2023/12/15 05:03:39;;;;;;;2.78;2.25;;;;;;;-1.26;100.00;98728.41;5119521;28;20087;-62
2023/12/15 05:06:05;;;;;;;3.42;2.83;;;;;;;-1.20;100.00;98732.59;5117207;28;20055;-63
2023/12/15 05:08:32;;;;;;;2.30;2.10;;;;;;;-1.30;100.00;98731.97;5119545;28;20109;-60
2023/12/15 05:10:58;;;;;;;4.53;2.78;;;;;;;-0.88;100.00;98743.56;5116999;28;20062;-63
2023/12/15 05:13:24;;;;;;;6.75;3.10;;;;;;;-1.04;100.00;98689.25;5119140;28;20048;-62
2023/12/15 05:15:50;;;;;;;2.85;2.25;;;;;;;-1.12;100.00;98674.63;5116778;28;20093;-63
2023/12/15 05:18:17;;;;;;;3.25;2.55;;;;;;;-1.05;100.00;98680.38;5119470;28;20051;-60
2023/12/15 05:20:43;;;;;;;4.32;2.60;;;;;;;-1.10;100.00;98677.81;5116534;28;20064;-60
2023/12/15 05:23:11;;;;;;;3.20;2.63;;;;;;;-1.02;100.00;98682.47;5116721;28;20059;-61
2023/12/15 05:25:37;;;;;;;3.60;2.65;;;;;;;-0.84;100.00;98701.50;5118836;28;20115;-60
2023/12/15 05:28:03;;;;;;;3.58;2.90;;;;;;;-0.99;100.00;98689.94;5116874;28;20074;-63
2023/12/15 05:30:30;;;;;;;4.93;2.78;;;;;;;-0.66;100.00;98729.41;5118187;28;20051;-64
2023/12/15 05:32:56;;;;;;;3.85;2.80;;;;;;;-0.70;100.00;98686.09;5116411;28;20146;-64
2023/12/15 05:35:22;;;;;;;4.75;3.30;;;;;;;-0.70;100.00;98661.88;5118838;28;20109;-63
2023/12/15 05:37:49;;;;;;;3.03;2.40;;;;;;;-0.69;100.00;98651.94;5116425;28;20055;-61
2023/12/15 05:40:16;;;;;;;4.78;3.40;;;;;;;-0.46;100.00;98639.31;5118877;28;20052;-61
2023/12/15 05:42:42;;;;;;;4.05;2.80;;;;;;;-0.70;100.00;98589.19;5116290;28;20146;-64
2023/12/15 05:45:09;;;;;;;5.88;3.42;;;;;;;-0.69;100.00;98590.81;5118752;28;20086;-59
2023/12/15 05:47:37;;;;;;;3.20;2.53;;;;;;;-0.46;100.00;98580.06;5116356;28;20047;-61
2023/12/15 05:50:03;;;;;;;10.23;5.70;;;;;;;-0.66;100.00;98565.97;5117903;28;20101;-60
2023/12/15 05:52:29;;;;;;;6.75;4.38;;;;;;;-0.76;100.00;98558.94;5117448;28;20051;-60
2023/12/15 05:54:55;;;;;;;5.47;3.25;;;;;;;-0.81;100.00;98575.19;5116332;28;20487;-63
2023/12/15 05:57:21;;;;;;;7.20;3.35;;;;;;;-0.86;100.00;98575.31;5118443;28;20055;-62
2023/12/15 05:59:48;;;;;;;4.95;3.15;;;;;;;-0.90;100.00;98574.34;5116116;28;20062;-63
2023/12/15 06:02:14;;;;;;;8.07;5.15;;;;;;;-1.17;100.00;98577.06;5118517;28;20332;-58
2023/12/15 06:04:41;;;;;;;5.32;3.58;;;;;;;-1.02;100.00;98622.50;5116039;28;20059;-58
2023/12/15 06:07:09;;;;;;;4.65;3.22;;;;;;;-1.08;100.00;98637.94;5118552;28;20058;-62
2023/12/15 06:09:36;;;;;;;3.80;3.20;;;;;;;-1.20;100.00;98638.47;5115852;28;20420;-64
2023/12/15 06:12:02;;;;;;;6.40;4.20;;;;;;;-1.26;100.00;98652.31;5118335;28;20051;-65
2023/12/15 06:14:28;;;;;;;4.95;3.67;;;;;;;-1.32;100.00;98664.25;5115671;28;20051;-64
2023/12/15 06:16:54;;;;;;;4.78;3.70;;;;;;;-1.40;100.00;98689.94;5118403;28;20052;-63
2023/12/15 06:19:20;;;;;;;5.03;3.72;;;;;;;-1.37;100.00;98721.59;5115705;28;20055;-64
2023/12/15 06:21:47;;;;;;;6.78;3.47;;;;;;;-1.47;100.00;98744.09;5115568;28;20150;-63
2023/12/15 06:24:13;;;;;;;6.38;3.63;;;;;;;-1.33;100.00;98764.84;5118131;28;20387;-64
2023/12/15 06:26:39;;;;;;;8.13;4.10;;;;;;;-1.15;100.00;98763.19;5115751;28;20450;-64
2023/12/15 06:29:05;;;;;;;5.35;3.30;;;;;;;-1.11;100.00;98745.34;5117935;28;20401;-64
2023/12/15 06:31:31;;;;;;;50.88;15.55;;;;;;;-1.20;100.00;98756.81;5115490;28;20435;-62
2023/12/15 06:33:58;;;;;;;10.25;5.40;;;;;;;-1.08;100.00;98799.34;5117476;28;20062;-64
2023/12/15 06:36:26;;;;;;;12.02;5.88;;;;;;;-0.92;100.00;98802.56;5115728;28;20051;-63
2023/12/15 06:38:52;;;;;;;8.35;4.35;;;;;;;-1.01;100.00;98790.88;5117889;28;20063;-64
2023/12/15 06:41:18;;;;;;;12.82;5.50;;;;;;;-0.81;100.00;98784.31;5115150;28;20060;-62
2023/12/15 06:43:45;;;;;;;6.32;4.00;;;;;;;-0.68;100.00;98753.91;5117408;28;20428;-65
2023/12/15 06:46:12;;;;;;;7.15;4.47;;;;;;;-0.64;100.00;98740.66;5114812;28;20051;-65
2023/12/15 06:48:39;;;;;;;8.40;4.72;;;;;;;-0.58;100.00;98729.47;5115698;28;20051;-63
2023/12/15 06:51:06;;;;;;;6.70;4.30;;;;;;;-0.48;100.00;98734.63;5117023;28;20067;-64
2023/12/15 06:53:32;;;;;;;8.52;4.88;;;;;;;-0.48;100.00;98699.63;5115372;28;20058;-62
2023/12/15 06:55:59;;;;;;;10.77;5.13;;;;;;;-0.42;100.00;98686.84;5117551;28;20435;-66
2023/12/15 06:58:26;;;;;;;8.77;4.93;;;;;;;-0.39;100.00;98669.31;5115052;28;20051;-63
2023/12/15 07:00:53;;;;;;;5.65;3.90;;;;;;;-0.50;100.00;98660.63;5117246;28;20051;-62
2023/12/15 07:03:19;;;;;;;7.40;5.13;;;;;;;-0.58;100.00;98670.25;5115077;28;20062;-65
2023/12/15 07:05:45;;;;;;;8.88;5.03;;;;;;;-0.66;100.00;98686.34;5117574;28;20047;-63
2023/12/15 07:08:11;;;;;;;11.00;5.78;;;;;;;-0.38;100.00;98741.69;5114749;28;20051;-64
2023/12/15 07:10:37;;;;;;;8.00;4.90;;;;;;;-0.46;100.00;98744.31;5117244;28;20112;-62
2023/12/15 07:13:04;;;;;;;8.82;5.55;;;;;;;-0.38;100.00;98754.38;5114560;28;20048;-64
2023/12/15 07:15:30;;;;;;;11.43;5.60;;;;;;;-0.33;100.00;98746.19;5116914;28;20063;-64
2023/12/15 07:17:57;;;;;;;8.93;5.60;;;;;;;-0.20;100.00;98768.78;5115206;28;20413;-62
2023/12/15 07:20:25;;;;;;;8.63;5.57;;;;;;;-0.11;100.00;98769.66;5097907;28;20085;-63
2023/12/15 07:22:51;;;;;;;8.68;5.45;;;;;;;-0.08;100.00;98752.91;5116998;28;20075;-64
2023/12/15 07:25:17;;;;;;;9.27;6.32;;;;;;;-0.28;100.00;98730.69;5114637;28;20182;-61
2023/12/15 07:27:43;;;;;;;11.77;6.00;;;;;;;0.00;100.00;98771.06;5117066;28;20051;-64
2023/12/15 07:30:11;;;;;;;9.10;6.15;;;;;;;-0.21;100.00;98738.38;5114732;28;20051;-65
2023/12/15 07:32:37;;;;;;;10.90;6.38;;;;;;;0.05;100.00;98751.25;5116795;28;20062;-65
2023/12/15 07:35:05;;;;;;;10.85;6.40;;;;;;;-0.01;100.00;98751.38;5114579;28;20105;-62
2023/12/15 07:37:31;;;;;;;9.23;5.72;;;;;;;0.04;100.00;98733.50;5117171;28;20051;-63
2023/12/15 07:39:57;;;;;;;8.88;5.47;;;;;;;-0.04;100.00;98711.56;5114374;28;20048;-64
2023/12/15 07:42:23;;;;;;;9.93;6.00;;;;;;;-0.16;100.00;98719.41;5117008;28;20405;-67
2023/12/15 07:44:49;;;;;;;11.38;6.03;;;;;;;-0.09;100.00;98765.56;5114000;28;20055;-65
2023/12/15 07:47:16;;;;;;;10.88;6.15;;;;;;;-0.15;100.00;98763.31;5114319;28;20116;-62
2023/12/15 07:49:42;;;;;;;10.15;5.82;;;;;;;-0.09;100.00;98767.47;5116768;28;20085;-63
2023/12/15 07:52:08;;;;;;;8.07;5.22;;;;;;;-0.11;100.00;98802.00;5114459;28;20074;-66
2023/12/15 07:54:34;;;;;;;20.42;10.18;;;;;;;-0.07;100.00;98835.31;5115770;28;20055;-66
2023/12/15 07:57:00;;;;;;;11.60;6.53;;;;;;;0.02;100.00;98808.47;5114435;28;20333;-64
2023/12/15 07:59:26;;;;;;;49.55;21.30;;;;;;;-0.04;100.00;98781.63;5116645;28;20112;-63
2023/12/15 08:01:55;;;;;;;10.90;6.35;;;;;;;0.03;100.00;98791.19;5114230;28;20070;-65
2023/12/15 08:04:21;;;;;;;13.43;7.10;;;;;;;-0.13;100.00;98782.66;5116571;28;20095;-66
2023/12/15 08:06:48;;;;;;;10.93;5.88;;;;;;;-0.27;100.00;98858.09;5113964;28;20440;-66
2023/12/15 08:09:14;;;;;;;13.48;5.47;;;;;;;-0.16;100.00;98859.50;5116507;28;20052;-64
2023/12/15 08:11:40;;;;;;;8.90;5.55;;;;;;;0.10;100.00;98840.91;5114042;28;20055;-62
2023/12/15 08:14:06;;;;;;;9.52;6.07;;;;;;;0.07;100.00;98816.41;5115084;28;20058;-66
2023/12/15 08:16:33;;;;;;;10.35;6.20;;;;;;;-0.34;100.00;98785.78;5115200;28;20444;-65
2023/12/15 08:19:03;;;;;;;11.32;5.70;;;;;;;0.10;100.00;98840.06;5113930;28;20122;-68
2023/12/15 08:21:30;;;;;;;7.50;4.63;;;;;;;0.06;100.00;98777.91;5116087;28;20051;-65
2023/12/15 08:23:56;;;;;;;15.73;6.88;;;;;;;0.01;100.00;98769.16;5114004;28;20067;-65
2023/12/15 08:26:23;;;;;;;10.57;5.22;;;;;;;-0.22;100.00;98754.84;5116322;28;20059;-68
2023/12/15 08:28:49;;;;;;;6.57;4.35;;;;;;;-0.16;100.00;98767.91;5113849;28;20078;-69
2023/12/15 08:31:16;;;;;;;8.40;4.85;;;;;;;-0.04;100.00;98789.69;5116336;28;20066;-64
2023/12/15 08:33:42;;;;;;;9.50;5.53;;;;;;;-0.19;100.00;98803.53;5113674;28;20051;-67
2023/12/15 08:36:10;;;;;;;20.88;9.88;;;;;;;-0.17;100.00;98830.94;5116375;28;20059;-71
2023/12/15 08:38:36;;;;;;;19.42;9.27;;;;;;;-0.25;100.00;98832.47;5113882;28;20211;-69
2023/12/15 08:41:03;;;;;;;12.65;6.80;;;;;;;-0.22;100.00;98906.50;5115796;28;20336;-68
2023/12/15 08:43:29;;;;;;;11.40;5.82;;;;;;;-0.14;100.00;98924.66;5114517;28;20441;-63
2023/12/15 08:45:55;;;;;;;10.85;5.70;;;;;;;0.01;100.00;98904.69;5113466;28;20071;-63
2023/12/15 08:48:21;;;;;;;9.40;5.57;;;;;;;-0.07;100.00;98895.44;5115961;28;20051;-55
2023/12/15 08:50:47;;;;;;;9.95;5.57;;;;;;;-0.10;100.00;98912.19;5113867;28;20048;-66
2023/12/15 08:53:15;;;;;;;9.52;5.63;;;;;;;0.03;100.00;98899.78;5115857;28;20055;-62
2023/12/15 08:55:42;;;;;;;10.25;5.57;;;;;;;-0.08;100.00;98912.66;5113719;28;20055;-67
2023/12/15 08:58:09;;;;;;;17.27;6.32;;;;;;;-0.10;100.00;98897.91;5115977;28;20070;-67
2023/12/15 09:00:35;;;;;;;8.20;5.55;;;;;;;0.15;100.00;98889.28;5113394;28;20091;-64
2023/12/15 09:03:01;;;;;;;8.70;5.30;;;;;;;0.27;100.00;98851.03;5115615;28;20059;-68
2023/12/15 09:05:27;;;;;;;8.38;5.22;;;;;;;0.30;100.00;98817.25;5113363;28;20055;-66
2023/12/15 09:07:54;;;;;;;11.45;6.32;;;;;;;0.12;100.00;98803.63;5119427;28;20055;-64
2023/12/15 09:10:22;;;;;;;14.63;5.88;;;;;;;0.05;100.00;98811.34;5116859;28;20055;-66
2023/12/15 09:12:50;;;;;;;12.93;6.45;;;;;;;0.14;100.00;98822.22;5116863;28;20413;-67
2023/12/15 09:15:17;;;;;;;12.23;5.18;;;;;;;0.18;100.00;98834.78;5119057;28;20138;-65
2023/12/15 09:17:43;;;;;;;8.55;5.43;;;;;;;0.13;100.00;98864.53;5116716;28;20052;-64
2023/12/15 09:20:10;;;;;;;11.45;7.45;;;;;;;0.11;100.00;98874.81;5119122;28;20051;-63
2023/12/15 09:22:37;;;;;;;18.15;8.00;;;;;;;0.23;100.00;98874.28;5116716;28;20051;-64
2023/12/15 09:25:04;;;;;;;15.52;7.97;;;;;;;-0.06;100.00;98829.66;5119069;28;20298;-62
2023/12/15 09:27:30;;;;;;;9.88;5.20;;;;;;;0.06;100.00;98866.03;5116673;28;20337;-64
2023/12/15 09:29:59;;;;;;;12.25;7.35;;;;;;;0.04;100.00;98920.25;5119149;28;20081;-66
2023/12/15 09:32:25;;;;;;;11.43;6.45;;;;;;;0.04;100.00;98911.38;5116498;28;20079;-63
2023/12/15 09:34:51;;;;;;;9.52;6.20;;;;;;;-0.11;100.00;98897.09;5119168;28;20147;-67
2023/12/15 09:37:17;;;;;;;11.57;7.18;;;;;;;0.05;100.00;98935.31;5116462;28;20124;-64
2023/12/15 09:39:43;;;;;;;11.00;6.00;;;;;;;0.07;100.00;98913.44;5116952;28;20409;-66
2023/12/15 09:42:10;;;;;;;8.32;5.25;;;;;;;0.16;100.00;98877.41;5101718;28;20063;-67
2023/12/15 09:44:36;;;;;;;11.50;6.45;;;;;;;0.01;100.00;98847.31;5116256;28;20421;-68
2023/12/15 09:47:04;;;;;;;11.15;5.88;;;;;;;0.08;100.00;98863.84;5118798;28;20051;-67
2023/12/15 09:49:32;;;;;;;9.48;6.15;;;;;;;-0.08;100.00;98836.44;5116533;28;20048;-66
2023/12/15 09:52:02;;;;;;;8.60;5.65;;;;;;;0.03;100.00;98853.97;5118581;28;20058;-63
2023/12/15 09:54:31;;;;;;;8.73;5.63;;;;;;;-0.23;100.00;98880.66;5115999;28;20422;-63
2023/12/15 09:56:57;;;;;;;11.68;5.07;;;;;;;0.14;100.00;98895.00;5118589;28;20120;-63
2023/12/15 09:59:23;;;;;;;8.77;5.32;;;;;;;0.21;100.00;98831.47;5115999;28;20436;-67
2023/12/15 10:01:49;;;;;;;8.98;4.65;;;;;;;-0.07;100.00;98817.28;5118365;28;20294;-63
2023/12/15 10:04:16;;;;;;;10.98;5.55;;;;;;;-0.04;100.00;98788.91;5115713;28;20055;-63
2023/12/15 10:06:42;;;;;;;9.82;5.05;;;;;;;0.12;100.00;98787.47;5116622;28;20051;-64
2023/12/15 10:09:12;;;;;;;9.25;6.25;;;;;;;0.13;100.00;98745.13;5117789;28;20052;-68
2023/12/15 10:11:39;;;;;;;10.02;5.60;;;;;;;0.30;100.00;98761.44;5115930;28;20420;-65
2023/12/15 10:14:07;;;;;;;12.18;6.88;;;;;;;0.37;100.00;98744.84;5118171;28;20055;-67
2023/12/15 10:16:33;;;;;;;14.55;7.97;;;;;;;0.18;100.00;98713.47;5115496;28;20051;-63
2023/12/15 10:19:02;;;;;;;9.85;5.07;;;;;;;0.33;100.00;98696.09;5118186;28;20063;-61
2023/12/15 10:21:31;;;;;;;9.95;5.65;;;;;;;0.17;100.00;98662.56;5115772;28;20093;-65
2023/12/15 10:23:57;;;;;;;24.40;13.80;;;;;;;0.26;100.00;98679.56;5118198;28;20286;-64
2023/12/15 10:26:23;;;;;;;8.23;4.75;;;;;;;0.11;100.00;98686.16;5115504;28;20055;-65
2023/12/15 10:28:49;;;;;;;13.80;7.63;;;;;;;0.13;100.00;98696.59;5117981;28;20059;-62
2023/12/15 10:31:15;;;;;;;11.88;7.07;;;;;;;-0.02;100.00;98695.09;5115417;28;20064;-60
2023/12/15 10:33:41;;;;;;;12.35;7.45;;;;;;;0.15;100.00;98697.09;5116277;28;20116;-64
2023/12/15 10:36:12;;;;;;;17.98;6.30;;;;;;;0.10;100.00;98702.59;5117427;28;20055;-61
2023/12/15 10:38:40;;;;;;;15.95;6.20;;;;;;;0.33;100.00;98704.19;5115348;28;20051;-66
2023/12/15 10:41:07;;;;;;;10.18;5.82;;;;;;;0.20;100.00;98678.09;5117513;28;20397;-65
2023/12/15 10:43:34;;;;;;;9.25;5.88;;;;;;;0.04;100.00;98695.78;5115120;28;20063;-63
2023/12/15 10:46:03;;;;;;;8.90;5.47;;;;;;;0.21;100.00;98698.56;5117330;28;20063;-65
2023/12/15 10:48:31;;;;;;;7.07;4.78;;;;;;;0.06;100.00;98705.13;5114991;28;20067;-64
2023/12/15 10:50:58;;;;;;;13.70;6.85;;;;;;;-0.03;100.00;98704.28;5117473;28;20051;-63
2023/12/15 10:53:25;;;;;;;10.43;6.22;;;;;;;0.10;100.00;98714.22;5114748;28;20047;-66
2023/12/15 10:55:52;;;;;;;11.32;7.43;;;;;;;0.09;100.00;98699.13;5117312;28;20059;-64
2023/12/15 10:58:19;;;;;;;9.02;5.30;;;;;;;0.12;100.00;98695.81;5114642;28;20052;-66
2023/12/15 11:00:46;;;;;;;10.02;5.53;;;;;;;-0.10;100.00;98687.72;5115281;28;20055;-66
2023/12/15 11:03:13;;;;;;;9.25;4.63;;;;;;;0.00;100.00;98692.91;5100572;28;20083;-64
2023/12/15 11:05:40;;;;;;;12.73;6.20;;;;;;;-0.02;100.00;98678.94;5114635;28;20062;-64
2023/12/15 11:08:06;;;;;;;8.00;5.05;;;;;;;0.13;100.00;98681.22;5117115;28;20329;-61
2023/12/15 11:10:33;;;;;;;11.90;5.60;;;;;;;0.01;100.00;98680.22;5114943;28;20055;-64
2023/12/15 11:13:00;;;;;;;10.45;4.38;;;;;;;-0.05;100.00;98674.16;5116946;28;20052;-65
2023/12/15 11:15:27;;;;;;;8.85;4.55;;;;;;;-0.07;100.00;98677.16;5114934;28;20056;-64
2023/12/15 11:17:54;;;;;;;8.27;4.80;;;;;;;-0.18;100.00;98667.72;5117323;28;20059;-64
2023/12/15 11:20:40;;;;;;;10.23;5.00;;;;;;;-0.10;100.00;98688.53;5114727;28;20051;-62
2023/12/15 11:23:08;;;;;;;8.02;4.97;;;;;;;-0.08;100.00;98704.41;5116501;28;20329;-64